<?xml version="1.0" encoding="UTF-8" standalone="no" ?>
<gpx xmlns="http://www.topografix.com/GPX/1/1" xmlns:xsi="http://www.w3.org/2001/XMLSchema-instance" xsi:schemaLocation="http://www.topografix.com/GPX/1/1 http://www.topografix.com/GPX/1/1/gpx.xsd" version="1.1" creator="VisuGPX - https://www.visugpx.com">
  <metadata>
    <name>Marche nordique autour des Gorges du Houx</name>
    <desc><![CDATA[Départ du carrefour des gorges de Franchard, route du Sommet, Mont Aigu, Carrefour du Renard, et retour par le carrefour du Houx]]></desc>
  </metadata>
  <trk>
    <name><![CDATA[26 sept. 2015 10:01:22]]></name>
    <cmt><![CDATA[26 sept. 2015 10:01:22]]></cmt>
    <trkseg>
      <trkpt lat="48.40398" lon="2.63851">
        <ele>121</ele>
        <time>2015-09-26T08:01:22Z</time>
      </trkpt>
      <trkpt lat="48.40404" lon="2.63842">
        <ele>124</ele>
        <time>2015-09-26T08:01:23Z</time>
      </trkpt>
      <trkpt lat="48.40404" lon="2.63848">
        <ele>130</ele>
        <time>2015-09-26T08:01:33Z</time>
      </trkpt>
      <trkpt lat="48.40394" lon="2.63846">
        <ele>131</ele>
        <time>2015-09-26T08:01:44Z</time>
      </trkpt>
      <trkpt lat="48.40385" lon="2.63847">
        <ele>132</ele>
        <time>2015-09-26T08:01:49Z</time>
      </trkpt>
      <trkpt lat="48.40376" lon="2.63846">
        <ele>132</ele>
        <time>2015-09-26T08:01:55Z</time>
      </trkpt>
      <trkpt lat="48.40367" lon="2.63843">
        <ele>131</ele>
        <time>2015-09-26T08:02:02Z</time>
      </trkpt>
      <trkpt lat="48.40358" lon="2.6385">
        <ele>131</ele>
        <time>2015-09-26T08:02:17Z</time>
      </trkpt>
      <trkpt lat="48.40333" lon="2.63854">
        <ele>130</ele>
        <time>2015-09-26T08:02:52Z</time>
      </trkpt>
      <trkpt lat="48.40286" lon="2.6387">
        <ele>130</ele>
        <time>2015-09-26T08:03:23Z</time>
      </trkpt>
      <trkpt lat="48.40276" lon="2.6387">
        <ele>130</ele>
        <time>2015-09-26T08:03:32Z</time>
      </trkpt>
      <trkpt lat="48.4023" lon="2.63888">
        <ele>132</ele>
        <time>2015-09-26T08:04:06Z</time>
      </trkpt>
      <trkpt lat="48.40182" lon="2.63905">
        <ele>132</ele>
        <time>2015-09-26T08:04:40Z</time>
      </trkpt>
      <trkpt lat="48.4012" lon="2.63928">
        <ele>131</ele>
        <time>2015-09-26T08:05:11Z</time>
      </trkpt>
      <trkpt lat="48.40066" lon="2.63945">
        <ele>130</ele>
        <time>2015-09-26T08:05:43Z</time>
      </trkpt>
      <trkpt lat="48.40027" lon="2.63956">
        <ele>129</ele>
        <time>2015-09-26T08:06:10Z</time>
      </trkpt>
      <trkpt lat="48.40019" lon="2.63964">
        <ele>128</ele>
        <time>2015-09-26T08:06:17Z</time>
      </trkpt>
      <trkpt lat="48.40013" lon="2.63977">
        <ele>127</ele>
        <time>2015-09-26T08:06:34Z</time>
      </trkpt>
      <trkpt lat="48.40014" lon="2.64006">
        <ele>126</ele>
        <time>2015-09-26T08:06:47Z</time>
      </trkpt>
      <trkpt lat="48.40015" lon="2.64036">
        <ele>127</ele>
        <time>2015-09-26T08:06:58Z</time>
      </trkpt>
      <trkpt lat="48.40018" lon="2.64124">
        <ele>128</ele>
        <time>2015-09-26T08:07:31Z</time>
      </trkpt>
      <trkpt lat="48.40017" lon="2.64138">
        <ele>128</ele>
        <time>2015-09-26T08:07:35Z</time>
      </trkpt>
      <trkpt lat="48.40022" lon="2.6415">
        <ele>127</ele>
        <time>2015-09-26T08:07:39Z</time>
      </trkpt>
      <trkpt lat="48.40024" lon="2.64182">
        <ele>128</ele>
        <time>2015-09-26T08:07:51Z</time>
      </trkpt>
      <trkpt lat="48.40021" lon="2.64195">
        <ele>128</ele>
        <time>2015-09-26T08:07:56Z</time>
      </trkpt>
      <trkpt lat="48.40028" lon="2.64255">
        <ele>129</ele>
        <time>2015-09-26T08:08:24Z</time>
      </trkpt>
      <trkpt lat="48.40033" lon="2.64267">
        <ele>129</ele>
        <time>2015-09-26T08:08:29Z</time>
      </trkpt>
      <trkpt lat="48.40043" lon="2.64292">
        <ele>130</ele>
        <time>2015-09-26T08:08:42Z</time>
      </trkpt>
      <trkpt lat="48.40052" lon="2.64297">
        <ele>130</ele>
        <time>2015-09-26T08:08:50Z</time>
      </trkpt>
      <trkpt lat="48.40062" lon="2.643">
        <ele>131</ele>
        <time>2015-09-26T08:08:57Z</time>
      </trkpt>
      <trkpt lat="48.40112" lon="2.64301">
        <ele>134</ele>
        <time>2015-09-26T08:09:33Z</time>
      </trkpt>
      <trkpt lat="48.40122" lon="2.64302">
        <ele>134</ele>
        <time>2015-09-26T08:09:41Z</time>
      </trkpt>
      <trkpt lat="48.40171" lon="2.64294">
        <ele>134</ele>
        <time>2015-09-26T08:10:05Z</time>
      </trkpt>
      <trkpt lat="48.40188" lon="2.64259">
        <ele>133</ele>
        <time>2015-09-26T08:10:22Z</time>
      </trkpt>
      <trkpt lat="48.40203" lon="2.64191">
        <ele>133</ele>
        <time>2015-09-26T08:10:56Z</time>
      </trkpt>
      <trkpt lat="48.40223" lon="2.64109">
        <ele>132</ele>
        <time>2015-09-26T08:11:31Z</time>
      </trkpt>
      <trkpt lat="48.40247" lon="2.64032">
        <ele>132</ele>
        <time>2015-09-26T08:12:04Z</time>
      </trkpt>
      <trkpt lat="48.40267" lon="2.63965">
        <ele>132</ele>
        <time>2015-09-26T08:12:39Z</time>
      </trkpt>
      <trkpt lat="48.40272" lon="2.63951">
        <ele>132</ele>
        <time>2015-09-26T08:12:45Z</time>
      </trkpt>
      <trkpt lat="48.40272" lon="2.63924">
        <ele>132</ele>
        <time>2015-09-26T08:12:54Z</time>
      </trkpt>
      <trkpt lat="48.40285" lon="2.6388">
        <ele>134</ele>
        <time>2015-09-26T08:13:11Z</time>
      </trkpt>
      <trkpt lat="48.40293" lon="2.63871">
        <ele>134</ele>
        <time>2015-09-26T08:13:18Z</time>
      </trkpt>
      <trkpt lat="48.40343" lon="2.6386">
        <ele>133</ele>
        <time>2015-09-26T08:13:49Z</time>
      </trkpt>
      <trkpt lat="48.40353" lon="2.63857">
        <ele>133</ele>
        <time>2015-09-26T08:13:57Z</time>
      </trkpt>
      <trkpt lat="48.40362" lon="2.63859">
        <ele>134</ele>
        <time>2015-09-26T08:14:04Z</time>
      </trkpt>
      <trkpt lat="48.40368" lon="2.6387">
        <ele>134</ele>
        <time>2015-09-26T08:14:11Z</time>
      </trkpt>
      <trkpt lat="48.40366" lon="2.63877">
        <ele>134</ele>
        <time>2015-09-26T08:14:13Z</time>
      </trkpt>
      <trkpt lat="48.40353" lon="2.63954">
        <ele>130</ele>
        <time>2015-09-26T08:14:50Z</time>
      </trkpt>
      <trkpt lat="48.40354" lon="2.63969">
        <ele>130</ele>
        <time>2015-09-26T08:14:57Z</time>
      </trkpt>
      <trkpt lat="48.40348" lon="2.63983">
        <ele>130</ele>
        <time>2015-09-26T08:15:03Z</time>
      </trkpt>
      <trkpt lat="48.40342" lon="2.63994">
        <ele>129</ele>
        <time>2015-09-26T08:15:09Z</time>
      </trkpt>
      <trkpt lat="48.40299" lon="2.64039">
        <ele>126</ele>
        <time>2015-09-26T08:15:42Z</time>
      </trkpt>
      <trkpt lat="48.40287" lon="2.64078">
        <ele>125</ele>
        <time>2015-09-26T08:16:00Z</time>
      </trkpt>
      <trkpt lat="48.40278" lon="2.64104">
        <ele>126</ele>
        <time>2015-09-26T08:16:14Z</time>
      </trkpt>
      <trkpt lat="48.4028" lon="2.64177">
        <ele>125</ele>
        <time>2015-09-26T08:16:45Z</time>
      </trkpt>
      <trkpt lat="48.40282" lon="2.64208">
        <ele>124</ele>
        <time>2015-09-26T08:17:01Z</time>
      </trkpt>
      <trkpt lat="48.40278" lon="2.64235">
        <ele>123</ele>
        <time>2015-09-26T08:17:14Z</time>
      </trkpt>
      <trkpt lat="48.40256" lon="2.64285">
        <ele>124</ele>
        <time>2015-09-26T08:17:40Z</time>
      </trkpt>
      <trkpt lat="48.40241" lon="2.64354">
        <ele>126</ele>
        <time>2015-09-26T08:18:10Z</time>
      </trkpt>
      <trkpt lat="48.40242" lon="2.64369">
        <ele>127</ele>
        <time>2015-09-26T08:18:18Z</time>
      </trkpt>
      <trkpt lat="48.40245" lon="2.64413">
        <ele>126</ele>
        <time>2015-09-26T08:18:39Z</time>
      </trkpt>
      <trkpt lat="48.40239" lon="2.64483">
        <ele>121</ele>
        <time>2015-09-26T08:19:11Z</time>
      </trkpt>
      <trkpt lat="48.40237" lon="2.64497">
        <ele>121</ele>
        <time>2015-09-26T08:19:18Z</time>
      </trkpt>
      <trkpt lat="48.40215" lon="2.64579">
        <ele>121</ele>
        <time>2015-09-26T08:19:52Z</time>
      </trkpt>
      <trkpt lat="48.40197" lon="2.6462">
        <ele>120</ele>
        <time>2015-09-26T08:20:07Z</time>
      </trkpt>
      <trkpt lat="48.40162" lon="2.64685">
        <ele>122</ele>
        <time>2015-09-26T08:20:43Z</time>
      </trkpt>
      <trkpt lat="48.40135" lon="2.6475">
        <ele>124</ele>
        <time>2015-09-26T08:21:14Z</time>
      </trkpt>
      <trkpt lat="48.40116" lon="2.64835">
        <ele>124</ele>
        <time>2015-09-26T08:21:46Z</time>
      </trkpt>
      <trkpt lat="48.40119" lon="2.64878">
        <ele>125</ele>
        <time>2015-09-26T08:22:00Z</time>
      </trkpt>
      <trkpt lat="48.40115" lon="2.6489">
        <ele>125</ele>
        <time>2015-09-26T08:22:05Z</time>
      </trkpt>
      <trkpt lat="48.40101" lon="2.64955">
        <ele>124</ele>
        <time>2015-09-26T08:22:48Z</time>
      </trkpt>
      <trkpt lat="48.40093" lon="2.64953">
        <ele>127</ele>
        <time>2015-09-26T08:25:19Z</time>
      </trkpt>
      <trkpt lat="48.40095" lon="2.64972">
        <ele>126</ele>
        <time>2015-09-26T08:25:37Z</time>
      </trkpt>
      <trkpt lat="48.40098" lon="2.64987">
        <ele>123</ele>
        <time>2015-09-26T08:25:43Z</time>
      </trkpt>
      <trkpt lat="48.40099" lon="2.65018">
        <ele>122</ele>
        <time>2015-09-26T08:25:55Z</time>
      </trkpt>
      <trkpt lat="48.40079" lon="2.65115">
        <ele>121</ele>
        <time>2015-09-26T08:26:33Z</time>
      </trkpt>
      <trkpt lat="48.40069" lon="2.65157">
        <ele>122</ele>
        <time>2015-09-26T08:26:53Z</time>
      </trkpt>
      <trkpt lat="48.4006" lon="2.65212">
        <ele>121</ele>
        <time>2015-09-26T08:27:16Z</time>
      </trkpt>
      <trkpt lat="48.40037" lon="2.65258">
        <ele>122</ele>
        <time>2015-09-26T08:27:37Z</time>
      </trkpt>
      <trkpt lat="48.40036" lon="2.65287">
        <ele>121</ele>
        <time>2015-09-26T08:27:47Z</time>
      </trkpt>
      <trkpt lat="48.40035" lon="2.65301">
        <ele>121</ele>
        <time>2015-09-26T08:27:55Z</time>
      </trkpt>
      <trkpt lat="48.40028" lon="2.65381">
        <ele>121</ele>
        <time>2015-09-26T08:28:27Z</time>
      </trkpt>
      <trkpt lat="48.40026" lon="2.65387">
        <ele>121</ele>
        <time>2015-09-26T08:28:29Z</time>
      </trkpt>
      <trkpt lat="48.40015" lon="2.6541">
        <ele>121</ele>
        <time>2015-09-26T08:28:42Z</time>
      </trkpt>
      <trkpt lat="48.40007" lon="2.65415">
        <ele>121</ele>
        <time>2015-09-26T08:28:49Z</time>
      </trkpt>
      <trkpt lat="48.39994" lon="2.65436">
        <ele>121</ele>
        <time>2015-09-26T08:29:00Z</time>
      </trkpt>
      <trkpt lat="48.3998" lon="2.65477">
        <ele>119</ele>
        <time>2015-09-26T08:29:17Z</time>
      </trkpt>
      <trkpt lat="48.39988" lon="2.65508">
        <ele>119</ele>
        <time>2015-09-26T08:29:34Z</time>
      </trkpt>
      <trkpt lat="48.39995" lon="2.65518">
        <ele>119</ele>
        <time>2015-09-26T08:29:43Z</time>
      </trkpt>
      <trkpt lat="48.39993" lon="2.6553">
        <ele>120</ele>
        <time>2015-09-26T08:30:01Z</time>
      </trkpt>
      <trkpt lat="48.39997" lon="2.65531">
        <ele>119</ele>
        <time>2015-09-26T08:31:59Z</time>
      </trkpt>
      <trkpt lat="48.40004" lon="2.65543">
        <ele>118</ele>
        <time>2015-09-26T08:32:08Z</time>
      </trkpt>
      <trkpt lat="48.40013" lon="2.65547">
        <ele>116</ele>
        <time>2015-09-26T08:32:20Z</time>
      </trkpt>
      <trkpt lat="48.40016" lon="2.65541">
        <ele>116</ele>
        <time>2015-09-26T08:32:25Z</time>
      </trkpt>
      <trkpt lat="48.40025" lon="2.65544">
        <ele>116</ele>
        <time>2015-09-26T08:32:39Z</time>
      </trkpt>
      <trkpt lat="48.40035" lon="2.65551">
        <ele>115</ele>
        <time>2015-09-26T08:32:47Z</time>
      </trkpt>
      <trkpt lat="48.40044" lon="2.65547">
        <ele>114</ele>
        <time>2015-09-26T08:32:58Z</time>
      </trkpt>
      <trkpt lat="48.40063" lon="2.6554">
        <ele>108</ele>
        <time>2015-09-26T08:33:19Z</time>
      </trkpt>
      <trkpt lat="48.40072" lon="2.65528">
        <ele>105</ele>
        <time>2015-09-26T08:33:29Z</time>
      </trkpt>
      <trkpt lat="48.40092" lon="2.65525">
        <ele>102</ele>
        <time>2015-09-26T08:33:44Z</time>
      </trkpt>
      <trkpt lat="48.40101" lon="2.65528">
        <ele>101</ele>
        <time>2015-09-26T08:33:51Z</time>
      </trkpt>
      <trkpt lat="48.4011" lon="2.65521">
        <ele>100</ele>
        <time>2015-09-26T08:34:00Z</time>
      </trkpt>
      <trkpt lat="48.40117" lon="2.65511">
        <ele>98</ele>
        <time>2015-09-26T08:34:05Z</time>
      </trkpt>
      <trkpt lat="48.40121" lon="2.65485">
        <ele>98</ele>
        <time>2015-09-26T08:34:16Z</time>
      </trkpt>
      <trkpt lat="48.40125" lon="2.65471">
        <ele>98</ele>
        <time>2015-09-26T08:34:22Z</time>
      </trkpt>
      <trkpt lat="48.40139" lon="2.65451">
        <ele>98</ele>
        <time>2015-09-26T08:34:34Z</time>
      </trkpt>
      <trkpt lat="48.40155" lon="2.65434">
        <ele>96</ele>
        <time>2015-09-26T08:34:45Z</time>
      </trkpt>
      <trkpt lat="48.40157" lon="2.65436">
        <ele>95</ele>
        <time>2015-09-26T08:35:31Z</time>
      </trkpt>
      <trkpt lat="48.40156" lon="2.65443">
        <ele>95</ele>
        <time>2015-09-26T08:36:27Z</time>
      </trkpt>
      <trkpt lat="48.40159" lon="2.65457">
        <ele>94</ele>
        <time>2015-09-26T08:36:37Z</time>
      </trkpt>
      <trkpt lat="48.40152" lon="2.65526">
        <ele>91</ele>
        <time>2015-09-26T08:37:11Z</time>
      </trkpt>
      <trkpt lat="48.40146" lon="2.65595">
        <ele>89</ele>
        <time>2015-09-26T08:37:41Z</time>
      </trkpt>
      <trkpt lat="48.40146" lon="2.65624">
        <ele>90</ele>
        <time>2015-09-26T08:37:58Z</time>
      </trkpt>
      <trkpt lat="48.40138" lon="2.65655">
        <ele>90</ele>
        <time>2015-09-26T08:38:08Z</time>
      </trkpt>
      <trkpt lat="48.4013" lon="2.65728">
        <ele>93</ele>
        <time>2015-09-26T08:38:40Z</time>
      </trkpt>
      <trkpt lat="48.40124" lon="2.65808">
        <ele>91</ele>
        <time>2015-09-26T08:39:15Z</time>
      </trkpt>
      <trkpt lat="48.4012" lon="2.65836">
        <ele>91</ele>
        <time>2015-09-26T08:39:26Z</time>
      </trkpt>
      <trkpt lat="48.40118" lon="2.65912">
        <ele>90</ele>
        <time>2015-09-26T08:39:59Z</time>
      </trkpt>
      <trkpt lat="48.40109" lon="2.65981">
        <ele>90</ele>
        <time>2015-09-26T08:40:31Z</time>
      </trkpt>
      <trkpt lat="48.40091" lon="2.66062">
        <ele>90</ele>
        <time>2015-09-26T08:41:04Z</time>
      </trkpt>
      <trkpt lat="48.40074" lon="2.66134">
        <ele>90</ele>
        <time>2015-09-26T08:41:39Z</time>
      </trkpt>
      <trkpt lat="48.40069" lon="2.66146">
        <ele>90</ele>
        <time>2015-09-26T08:41:44Z</time>
      </trkpt>
      <trkpt lat="48.40055" lon="2.66218">
        <ele>90</ele>
        <time>2015-09-26T08:42:16Z</time>
      </trkpt>
      <trkpt lat="48.40054" lon="2.66233">
        <ele>90</ele>
        <time>2015-09-26T08:42:22Z</time>
      </trkpt>
      <trkpt lat="48.4005" lon="2.66297">
        <ele>91</ele>
        <time>2015-09-26T08:42:50Z</time>
      </trkpt>
      <trkpt lat="48.40053" lon="2.66303">
        <ele>90</ele>
        <time>2015-09-26T08:42:59Z</time>
      </trkpt>
      <trkpt lat="48.40064" lon="2.66303">
        <ele>90</ele>
        <time>2015-09-26T08:43:05Z</time>
      </trkpt>
      <trkpt lat="48.4007" lon="2.66301">
        <ele>90</ele>
        <time>2015-09-26T08:43:08Z</time>
      </trkpt>
      <trkpt lat="48.40086" lon="2.66293">
        <ele>91</ele>
        <time>2015-09-26T08:43:17Z</time>
      </trkpt>
      <trkpt lat="48.40103" lon="2.66298">
        <ele>92</ele>
        <time>2015-09-26T08:43:27Z</time>
      </trkpt>
      <trkpt lat="48.40107" lon="2.66297">
        <ele>92</ele>
        <time>2015-09-26T08:43:32Z</time>
      </trkpt>
      <trkpt lat="48.40119" lon="2.66308">
        <ele>91</ele>
        <time>2015-09-26T08:43:53Z</time>
      </trkpt>
      <trkpt lat="48.40166" lon="2.66308">
        <ele>95</ele>
        <time>2015-09-26T08:44:30Z</time>
      </trkpt>
      <trkpt lat="48.40175" lon="2.66301">
        <ele>96</ele>
        <time>2015-09-26T08:44:37Z</time>
      </trkpt>
      <trkpt lat="48.40181" lon="2.66291">
        <ele>96</ele>
        <time>2015-09-26T08:44:46Z</time>
      </trkpt>
      <trkpt lat="48.40191" lon="2.66292">
        <ele>97</ele>
        <time>2015-09-26T08:44:54Z</time>
      </trkpt>
      <trkpt lat="48.40201" lon="2.66295">
        <ele>98</ele>
        <time>2015-09-26T08:45:01Z</time>
      </trkpt>
      <trkpt lat="48.40195" lon="2.66306">
        <ele>99</ele>
        <time>2015-09-26T08:45:23Z</time>
      </trkpt>
      <trkpt lat="48.40192" lon="2.6632">
        <ele>100</ele>
        <time>2015-09-26T08:45:30Z</time>
      </trkpt>
      <trkpt lat="48.40187" lon="2.66331">
        <ele>101</ele>
        <time>2015-09-26T08:45:35Z</time>
      </trkpt>
      <trkpt lat="48.40171" lon="2.66369">
        <ele>101</ele>
        <time>2015-09-26T08:45:55Z</time>
      </trkpt>
      <trkpt lat="48.40167" lon="2.66382">
        <ele>102</ele>
        <time>2015-09-26T08:46:03Z</time>
      </trkpt>
      <trkpt lat="48.4017" lon="2.6641">
        <ele>103</ele>
        <time>2015-09-26T08:46:17Z</time>
      </trkpt>
      <trkpt lat="48.40181" lon="2.66432">
        <ele>104</ele>
        <time>2015-09-26T08:46:32Z</time>
      </trkpt>
      <trkpt lat="48.40182" lon="2.66448">
        <ele>104</ele>
        <time>2015-09-26T08:46:38Z</time>
      </trkpt>
      <trkpt lat="48.40189" lon="2.66459">
        <ele>104</ele>
        <time>2015-09-26T08:46:44Z</time>
      </trkpt>
      <trkpt lat="48.40192" lon="2.66474">
        <ele>104</ele>
        <time>2015-09-26T08:46:50Z</time>
      </trkpt>
      <trkpt lat="48.40195" lon="2.66488">
        <ele>104</ele>
        <time>2015-09-26T08:46:57Z</time>
      </trkpt>
      <trkpt lat="48.402" lon="2.66516">
        <ele>105</ele>
        <time>2015-09-26T08:47:12Z</time>
      </trkpt>
      <trkpt lat="48.40203" lon="2.66529">
        <ele>106</ele>
        <time>2015-09-26T08:47:23Z</time>
      </trkpt>
      <trkpt lat="48.40208" lon="2.66522">
        <ele>108</ele>
        <time>2015-09-26T08:48:05Z</time>
      </trkpt>
      <trkpt lat="48.4021" lon="2.66505">
        <ele>109</ele>
        <time>2015-09-26T08:49:27Z</time>
      </trkpt>
      <trkpt lat="48.40217" lon="2.66497">
        <ele>113</ele>
        <time>2015-09-26T08:50:02Z</time>
      </trkpt>
      <trkpt lat="48.40246" lon="2.66533">
        <ele>113</ele>
        <time>2015-09-26T08:50:48Z</time>
      </trkpt>
      <trkpt lat="48.40284" lon="2.66504">
        <ele>113</ele>
        <time>2015-09-26T08:51:00Z</time>
      </trkpt>
      <trkpt lat="48.40222" lon="2.66471">
        <ele>113</ele>
        <time>2015-09-26T08:51:09Z</time>
      </trkpt>
      <trkpt lat="48.40234" lon="2.66479">
        <ele>114</ele>
        <time>2015-09-26T08:51:13Z</time>
      </trkpt>
      <trkpt lat="48.40243" lon="2.66479">
        <ele>113</ele>
        <time>2015-09-26T08:51:30Z</time>
      </trkpt>
      <trkpt lat="48.40245" lon="2.66466">
        <ele>113</ele>
        <time>2015-09-26T08:51:37Z</time>
      </trkpt>
      <trkpt lat="48.40246" lon="2.66452">
        <ele>114</ele>
        <time>2015-09-26T08:51:45Z</time>
      </trkpt>
      <trkpt lat="48.40252" lon="2.66425">
        <ele>116</ele>
        <time>2015-09-26T08:51:59Z</time>
      </trkpt>
      <trkpt lat="48.40261" lon="2.66421">
        <ele>115</ele>
        <time>2015-09-26T08:52:05Z</time>
      </trkpt>
      <trkpt lat="48.4031" lon="2.66405">
        <ele>113</ele>
        <time>2015-09-26T08:52:35Z</time>
      </trkpt>
      <trkpt lat="48.40333" lon="2.6638">
        <ele>112</ele>
        <time>2015-09-26T08:52:57Z</time>
      </trkpt>
      <trkpt lat="48.40342" lon="2.6638">
        <ele>111</ele>
        <time>2015-09-26T08:53:03Z</time>
      </trkpt>
      <trkpt lat="48.40358" lon="2.66395">
        <ele>110</ele>
        <time>2015-09-26T08:53:15Z</time>
      </trkpt>
      <trkpt lat="48.4039" lon="2.66406">
        <ele>111</ele>
        <time>2015-09-26T08:53:35Z</time>
      </trkpt>
      <trkpt lat="48.40399" lon="2.66409">
        <ele>110</ele>
        <time>2015-09-26T08:53:41Z</time>
      </trkpt>
      <trkpt lat="48.40424" lon="2.66428">
        <ele>107</ele>
        <time>2015-09-26T08:53:59Z</time>
      </trkpt>
      <trkpt lat="48.40433" lon="2.66435">
        <ele>107</ele>
        <time>2015-09-26T08:54:07Z</time>
      </trkpt>
      <trkpt lat="48.40442" lon="2.66434">
        <ele>108</ele>
        <time>2015-09-26T08:54:14Z</time>
      </trkpt>
      <trkpt lat="48.40452" lon="2.66429">
        <ele>108</ele>
        <time>2015-09-26T08:54:21Z</time>
      </trkpt>
      <trkpt lat="48.40472" lon="2.6643">
        <ele>110</ele>
        <time>2015-09-26T08:54:33Z</time>
      </trkpt>
      <trkpt lat="48.4048" lon="2.66423">
        <ele>112</ele>
        <time>2015-09-26T08:54:41Z</time>
      </trkpt>
      <trkpt lat="48.40492" lon="2.66398">
        <ele>112</ele>
        <time>2015-09-26T08:54:56Z</time>
      </trkpt>
      <trkpt lat="48.40497" lon="2.66386">
        <ele>112</ele>
        <time>2015-09-26T08:55:02Z</time>
      </trkpt>
      <trkpt lat="48.40509" lon="2.66316">
        <ele>120</ele>
        <time>2015-09-26T08:55:34Z</time>
      </trkpt>
      <trkpt lat="48.40501" lon="2.66288">
        <ele>122</ele>
        <time>2015-09-26T08:55:51Z</time>
      </trkpt>
      <trkpt lat="48.40493" lon="2.66279">
        <ele>122</ele>
        <time>2015-09-26T08:55:59Z</time>
      </trkpt>
      <trkpt lat="48.40484" lon="2.66281">
        <ele>123</ele>
        <time>2015-09-26T08:56:07Z</time>
      </trkpt>
      <trkpt lat="48.40476" lon="2.66288">
        <ele>123</ele>
        <time>2015-09-26T08:56:17Z</time>
      </trkpt>
      <trkpt lat="48.40478" lon="2.66302">
        <ele>126</ele>
        <time>2015-09-26T08:56:33Z</time>
      </trkpt>
      <trkpt lat="48.40482" lon="2.66317">
        <ele>128</ele>
        <time>2015-09-26T08:58:15Z</time>
      </trkpt>
      <trkpt lat="48.40485" lon="2.66329">
        <ele>127</ele>
        <time>2015-09-26T08:58:28Z</time>
      </trkpt>
      <trkpt lat="48.40485" lon="2.66343">
        <ele>127</ele>
        <time>2015-09-26T08:58:36Z</time>
      </trkpt>
      <trkpt lat="48.40475" lon="2.66367">
        <ele>127</ele>
        <time>2015-09-26T08:58:56Z</time>
      </trkpt>
      <trkpt lat="48.40472" lon="2.6638">
        <ele>127</ele>
        <time>2015-09-26T08:59:13Z</time>
      </trkpt>
      <trkpt lat="48.40468" lon="2.66383">
        <ele>129</ele>
        <time>2015-09-26T08:59:35Z</time>
      </trkpt>
      <trkpt lat="48.40465" lon="2.66376">
        <ele>132</ele>
        <time>2015-09-26T09:03:20Z</time>
      </trkpt>
      <trkpt lat="48.40459" lon="2.6637">
        <ele>133</ele>
        <time>2015-09-26T09:04:17Z</time>
      </trkpt>
      <trkpt lat="48.40449" lon="2.66368">
        <ele>131</ele>
        <time>2015-09-26T09:04:27Z</time>
      </trkpt>
      <trkpt lat="48.40447" lon="2.66353">
        <ele>130</ele>
        <time>2015-09-26T09:04:38Z</time>
      </trkpt>
      <trkpt lat="48.40447" lon="2.66339">
        <ele>130</ele>
        <time>2015-09-26T09:04:47Z</time>
      </trkpt>
      <trkpt lat="48.40435" lon="2.66299">
        <ele>128</ele>
        <time>2015-09-26T09:05:15Z</time>
      </trkpt>
      <trkpt lat="48.40442" lon="2.66272">
        <ele>126</ele>
        <time>2015-09-26T09:05:31Z</time>
      </trkpt>
      <trkpt lat="48.4044" lon="2.66259">
        <ele>124</ele>
        <time>2015-09-26T09:05:40Z</time>
      </trkpt>
      <trkpt lat="48.40449" lon="2.66249">
        <ele>123</ele>
        <time>2015-09-26T09:05:50Z</time>
      </trkpt>
      <trkpt lat="48.40458" lon="2.66244">
        <ele>122</ele>
        <time>2015-09-26T09:05:56Z</time>
      </trkpt>
      <trkpt lat="48.40476" lon="2.66236">
        <ele>122</ele>
        <time>2015-09-26T09:06:12Z</time>
      </trkpt>
      <trkpt lat="48.40485" lon="2.66229">
        <ele>121</ele>
        <time>2015-09-26T09:06:20Z</time>
      </trkpt>
      <trkpt lat="48.40494" lon="2.66232">
        <ele>120</ele>
        <time>2015-09-26T09:06:28Z</time>
      </trkpt>
      <trkpt lat="48.40503" lon="2.66236">
        <ele>119</ele>
        <time>2015-09-26T09:06:34Z</time>
      </trkpt>
      <trkpt lat="48.40528" lon="2.66261">
        <ele>114</ele>
        <time>2015-09-26T09:06:56Z</time>
      </trkpt>
      <trkpt lat="48.40532" lon="2.66275">
        <ele>114</ele>
        <time>2015-09-26T09:07:03Z</time>
      </trkpt>
      <trkpt lat="48.40531" lon="2.66304">
        <ele>113</ele>
        <time>2015-09-26T09:07:17Z</time>
      </trkpt>
      <trkpt lat="48.40538" lon="2.66375">
        <ele>108</ele>
        <time>2015-09-26T09:07:49Z</time>
      </trkpt>
      <trkpt lat="48.40532" lon="2.66385">
        <ele>108</ele>
        <time>2015-09-26T09:07:59Z</time>
      </trkpt>
      <trkpt lat="48.40532" lon="2.66399">
        <ele>107</ele>
        <time>2015-09-26T09:08:09Z</time>
      </trkpt>
      <trkpt lat="48.40534" lon="2.66414">
        <ele>106</ele>
        <time>2015-09-26T09:08:16Z</time>
      </trkpt>
      <trkpt lat="48.40534" lon="2.66428">
        <ele>105</ele>
        <time>2015-09-26T09:08:26Z</time>
      </trkpt>
      <trkpt lat="48.40528" lon="2.66438">
        <ele>104</ele>
        <time>2015-09-26T09:08:34Z</time>
      </trkpt>
      <trkpt lat="48.40521" lon="2.66447">
        <ele>102</ele>
        <time>2015-09-26T09:08:42Z</time>
      </trkpt>
      <trkpt lat="48.40489" lon="2.66501">
        <ele>99</ele>
        <time>2015-09-26T09:09:16Z</time>
      </trkpt>
      <trkpt lat="48.40473" lon="2.66583">
        <ele>93</ele>
        <time>2015-09-26T09:09:48Z</time>
      </trkpt>
      <trkpt lat="48.40467" lon="2.66669">
        <ele>90</ele>
        <time>2015-09-26T09:10:18Z</time>
      </trkpt>
      <trkpt lat="48.40474" lon="2.66738">
        <ele>89</ele>
        <time>2015-09-26T09:10:48Z</time>
      </trkpt>
      <trkpt lat="48.40473" lon="2.66781">
        <ele>87</ele>
        <time>2015-09-26T09:11:10Z</time>
      </trkpt>
      <trkpt lat="48.40472" lon="2.66791">
        <ele>86</ele>
        <time>2015-09-26T09:11:39Z</time>
      </trkpt>
      <trkpt lat="48.40482" lon="2.66788">
        <ele>86</ele>
        <time>2015-09-26T09:12:46Z</time>
      </trkpt>
      <trkpt lat="48.40501" lon="2.66778">
        <ele>86</ele>
        <time>2015-09-26T09:12:59Z</time>
      </trkpt>
      <trkpt lat="48.40548" lon="2.66749">
        <ele>89</ele>
        <time>2015-09-26T09:13:29Z</time>
      </trkpt>
      <trkpt lat="48.40573" lon="2.66722">
        <ele>91</ele>
        <time>2015-09-26T09:13:53Z</time>
      </trkpt>
      <trkpt lat="48.40606" lon="2.66694">
        <ele>96</ele>
        <time>2015-09-26T09:14:24Z</time>
      </trkpt>
      <trkpt lat="48.40637" lon="2.66664">
        <ele>99</ele>
        <time>2015-09-26T09:14:54Z</time>
      </trkpt>
      <trkpt lat="48.4068" lon="2.66629">
        <ele>102</ele>
        <time>2015-09-26T09:15:27Z</time>
      </trkpt>
      <trkpt lat="48.40709" lon="2.66593">
        <ele>107</ele>
        <time>2015-09-26T09:15:59Z</time>
      </trkpt>
      <trkpt lat="48.40728" lon="2.66541">
        <ele>113</ele>
        <time>2015-09-26T09:16:30Z</time>
      </trkpt>
      <trkpt lat="48.40739" lon="2.66502">
        <ele>114</ele>
        <time>2015-09-26T09:16:56Z</time>
      </trkpt>
      <trkpt lat="48.40746" lon="2.66478">
        <ele>117</ele>
        <time>2015-09-26T09:17:19Z</time>
      </trkpt>
      <trkpt lat="48.40756" lon="2.66472">
        <ele>118</ele>
        <time>2015-09-26T09:17:27Z</time>
      </trkpt>
      <trkpt lat="48.40765" lon="2.66468">
        <ele>120</ele>
        <time>2015-09-26T09:17:37Z</time>
      </trkpt>
      <trkpt lat="48.40773" lon="2.66461">
        <ele>121</ele>
        <time>2015-09-26T09:17:46Z</time>
      </trkpt>
      <trkpt lat="48.4078" lon="2.66456">
        <ele>124</ele>
        <time>2015-09-26T09:18:04Z</time>
      </trkpt>
      <trkpt lat="48.40778" lon="2.66437">
        <ele>127</ele>
        <time>2015-09-26T09:19:42Z</time>
      </trkpt>
      <trkpt lat="48.4078" lon="2.6642">
        <ele>127</ele>
        <time>2015-09-26T09:20:01Z</time>
      </trkpt>
      <trkpt lat="48.40782" lon="2.66406">
        <ele>127</ele>
        <time>2015-09-26T09:20:09Z</time>
      </trkpt>
      <trkpt lat="48.4078" lon="2.66392">
        <ele>128</ele>
        <time>2015-09-26T09:20:16Z</time>
      </trkpt>
      <trkpt lat="48.40771" lon="2.66353">
        <ele>127</ele>
        <time>2015-09-26T09:20:33Z</time>
      </trkpt>
      <trkpt lat="48.40777" lon="2.66268">
        <ele>128</ele>
        <time>2015-09-26T09:21:08Z</time>
      </trkpt>
      <trkpt lat="48.40774" lon="2.66197">
        <ele>130</ele>
        <time>2015-09-26T09:21:42Z</time>
      </trkpt>
      <trkpt lat="48.40781" lon="2.66155">
        <ele>130</ele>
        <time>2015-09-26T09:22:09Z</time>
      </trkpt>
      <trkpt lat="48.40774" lon="2.66127">
        <ele>131</ele>
        <time>2015-09-26T09:22:33Z</time>
      </trkpt>
      <trkpt lat="48.40768" lon="2.66093">
        <ele>127</ele>
        <time>2015-09-26T09:23:00Z</time>
      </trkpt>
      <trkpt lat="48.40762" lon="2.66037">
        <ele>127</ele>
        <time>2015-09-26T09:23:31Z</time>
      </trkpt>
      <trkpt lat="48.40758" lon="2.65963">
        <ele>127</ele>
        <time>2015-09-26T09:24:07Z</time>
      </trkpt>
      <trkpt lat="48.40762" lon="2.65893">
        <ele>127</ele>
        <time>2015-09-26T09:24:39Z</time>
      </trkpt>
      <trkpt lat="48.40771" lon="2.65849">
        <ele>130</ele>
        <time>2015-09-26T09:25:14Z</time>
      </trkpt>
      <trkpt lat="48.40772" lon="2.6584">
        <ele>130</ele>
        <time>2015-09-26T09:25:17Z</time>
      </trkpt>
      <trkpt lat="48.40777" lon="2.65813">
        <ele>129</ele>
        <time>2015-09-26T09:25:27Z</time>
      </trkpt>
      <trkpt lat="48.40781" lon="2.65768">
        <ele>128</ele>
        <time>2015-09-26T09:25:43Z</time>
      </trkpt>
      <trkpt lat="48.40782" lon="2.65754">
        <ele>128</ele>
        <time>2015-09-26T09:25:50Z</time>
      </trkpt>
      <trkpt lat="48.40783" lon="2.65739">
        <ele>127</ele>
        <time>2015-09-26T09:25:57Z</time>
      </trkpt>
      <trkpt lat="48.40793" lon="2.65699">
        <ele>128</ele>
        <time>2015-09-26T09:26:13Z</time>
      </trkpt>
      <trkpt lat="48.40794" lon="2.65685">
        <ele>129</ele>
        <time>2015-09-26T09:26:20Z</time>
      </trkpt>
      <trkpt lat="48.40798" lon="2.65658">
        <ele>129</ele>
        <time>2015-09-26T09:26:31Z</time>
      </trkpt>
      <trkpt lat="48.40796" lon="2.65643">
        <ele>128</ele>
        <time>2015-09-26T09:26:40Z</time>
      </trkpt>
      <trkpt lat="48.40786" lon="2.65565">
        <ele>129</ele>
        <time>2015-09-26T09:27:15Z</time>
      </trkpt>
      <trkpt lat="48.40763" lon="2.65516">
        <ele>129</ele>
        <time>2015-09-26T09:27:47Z</time>
      </trkpt>
      <trkpt lat="48.4076" lon="2.65501">
        <ele>128</ele>
        <time>2015-09-26T09:27:54Z</time>
      </trkpt>
      <trkpt lat="48.40762" lon="2.65488">
        <ele>128</ele>
        <time>2015-09-26T09:28:02Z</time>
      </trkpt>
      <trkpt lat="48.40769" lon="2.65462">
        <ele>129</ele>
        <time>2015-09-26T09:28:16Z</time>
      </trkpt>
      <trkpt lat="48.40772" lon="2.65445">
        <ele>128</ele>
        <time>2015-09-26T09:28:24Z</time>
      </trkpt>
      <trkpt lat="48.40784" lon="2.65382">
        <ele>129</ele>
        <time>2015-09-26T09:28:57Z</time>
      </trkpt>
      <trkpt lat="48.40783" lon="2.6535">
        <ele>128</ele>
        <time>2015-09-26T09:29:14Z</time>
      </trkpt>
      <trkpt lat="48.40782" lon="2.65291">
        <ele>129</ele>
        <time>2015-09-26T09:29:44Z</time>
      </trkpt>
      <trkpt lat="48.40786" lon="2.65249">
        <ele>129</ele>
        <time>2015-09-26T09:30:08Z</time>
      </trkpt>
      <trkpt lat="48.40792" lon="2.65237">
        <ele>129</ele>
        <time>2015-09-26T09:30:15Z</time>
      </trkpt>
      <trkpt lat="48.40789" lon="2.65222">
        <ele>128</ele>
        <time>2015-09-26T09:30:22Z</time>
      </trkpt>
      <trkpt lat="48.40786" lon="2.65209">
        <ele>128</ele>
        <time>2015-09-26T09:30:30Z</time>
      </trkpt>
      <trkpt lat="48.40781" lon="2.65182">
        <ele>127</ele>
        <time>2015-09-26T09:30:46Z</time>
      </trkpt>
      <trkpt lat="48.40785" lon="2.65169">
        <ele>125</ele>
        <time>2015-09-26T09:30:54Z</time>
      </trkpt>
      <trkpt lat="48.40788" lon="2.65155">
        <ele>124</ele>
        <time>2015-09-26T09:31:05Z</time>
      </trkpt>
      <trkpt lat="48.40786" lon="2.65142">
        <ele>123</ele>
        <time>2015-09-26T09:31:12Z</time>
      </trkpt>
      <trkpt lat="48.40776" lon="2.65119">
        <ele>121</ele>
        <time>2015-09-26T09:31:26Z</time>
      </trkpt>
      <trkpt lat="48.40769" lon="2.65111">
        <ele>121</ele>
        <time>2015-09-26T09:31:31Z</time>
      </trkpt>
      <trkpt lat="48.40737" lon="2.65079">
        <ele>118</ele>
        <time>2015-09-26T09:32:02Z</time>
      </trkpt>
      <trkpt lat="48.40732" lon="2.65067">
        <ele>117</ele>
        <time>2015-09-26T09:32:10Z</time>
      </trkpt>
      <trkpt lat="48.40705" lon="2.65007">
        <ele>115</ele>
        <time>2015-09-26T09:32:46Z</time>
      </trkpt>
      <trkpt lat="48.40703" lon="2.64997">
        <ele>113</ele>
        <time>2015-09-26T09:33:02Z</time>
      </trkpt>
      <trkpt lat="48.40689" lon="2.64979">
        <ele>113</ele>
        <time>2015-09-26T09:33:25Z</time>
      </trkpt>
      <trkpt lat="48.40675" lon="2.64958">
        <ele>111</ele>
        <time>2015-09-26T09:33:39Z</time>
      </trkpt>
      <trkpt lat="48.40668" lon="2.64948">
        <ele>111</ele>
        <time>2015-09-26T09:33:44Z</time>
      </trkpt>
      <trkpt lat="48.40664" lon="2.64936">
        <ele>112</ele>
        <time>2015-09-26T09:33:51Z</time>
      </trkpt>
      <trkpt lat="48.40661" lon="2.64878">
        <ele>110</ele>
        <time>2015-09-26T09:34:25Z</time>
      </trkpt>
      <trkpt lat="48.40658" lon="2.64864">
        <ele>110</ele>
        <time>2015-09-26T09:34:33Z</time>
      </trkpt>
      <trkpt lat="48.4065" lon="2.64839">
        <ele>111</ele>
        <time>2015-09-26T09:34:49Z</time>
      </trkpt>
      <trkpt lat="48.40655" lon="2.64811">
        <ele>113</ele>
        <time>2015-09-26T09:35:07Z</time>
      </trkpt>
      <trkpt lat="48.40659" lon="2.64797">
        <ele>114</ele>
        <time>2015-09-26T09:35:16Z</time>
      </trkpt>
      <trkpt lat="48.40657" lon="2.64783">
        <ele>114</ele>
        <time>2015-09-26T09:35:25Z</time>
      </trkpt>
      <trkpt lat="48.40653" lon="2.64771">
        <ele>115</ele>
        <time>2015-09-26T09:35:32Z</time>
      </trkpt>
      <trkpt lat="48.40654" lon="2.64756">
        <ele>116</ele>
        <time>2015-09-26T09:35:39Z</time>
      </trkpt>
      <trkpt lat="48.40665" lon="2.64729">
        <ele>118</ele>
        <time>2015-09-26T09:36:10Z</time>
      </trkpt>
      <trkpt lat="48.40669" lon="2.64716">
        <ele>118</ele>
        <time>2015-09-26T09:36:20Z</time>
      </trkpt>
      <trkpt lat="48.40666" lon="2.64701">
        <ele>119</ele>
        <time>2015-09-26T09:36:31Z</time>
      </trkpt>
      <trkpt lat="48.40672" lon="2.64689">
        <ele>120</ele>
        <time>2015-09-26T09:36:43Z</time>
      </trkpt>
      <trkpt lat="48.40677" lon="2.6463">
        <ele>124</ele>
        <time>2015-09-26T09:37:19Z</time>
      </trkpt>
      <trkpt lat="48.40681" lon="2.64616">
        <ele>125</ele>
        <time>2015-09-26T09:37:27Z</time>
      </trkpt>
      <trkpt lat="48.40681" lon="2.64602">
        <ele>125</ele>
        <time>2015-09-26T09:37:36Z</time>
      </trkpt>
      <trkpt lat="48.40671" lon="2.64582">
        <ele>127</ele>
        <time>2015-09-26T09:37:58Z</time>
      </trkpt>
      <trkpt lat="48.40667" lon="2.64553">
        <ele>130</ele>
        <time>2015-09-26T09:38:37Z</time>
      </trkpt>
      <trkpt lat="48.40659" lon="2.64512">
        <ele>131</ele>
        <time>2015-09-26T09:38:59Z</time>
      </trkpt>
      <trkpt lat="48.40653" lon="2.645">
        <ele>130</ele>
        <time>2015-09-26T09:39:09Z</time>
      </trkpt>
      <trkpt lat="48.40649" lon="2.64486">
        <ele>129</ele>
        <time>2015-09-26T09:39:17Z</time>
      </trkpt>
      <trkpt lat="48.4065" lon="2.64471">
        <ele>129</ele>
        <time>2015-09-26T09:39:25Z</time>
      </trkpt>
      <trkpt lat="48.4067" lon="2.64405">
        <ele>129</ele>
        <time>2015-09-26T09:40:02Z</time>
      </trkpt>
      <trkpt lat="48.40675" lon="2.64393">
        <ele>130</ele>
        <time>2015-09-26T09:40:10Z</time>
      </trkpt>
      <trkpt lat="48.40686" lon="2.64355">
        <ele>131</ele>
        <time>2015-09-26T09:40:35Z</time>
      </trkpt>
      <trkpt lat="48.40682" lon="2.64342">
        <ele>131</ele>
        <time>2015-09-26T09:40:44Z</time>
      </trkpt>
      <trkpt lat="48.40677" lon="2.64314">
        <ele>131</ele>
        <time>2015-09-26T09:40:56Z</time>
      </trkpt>
      <trkpt lat="48.40662" lon="2.64293">
        <ele>132</ele>
        <time>2015-09-26T09:41:10Z</time>
      </trkpt>
      <trkpt lat="48.40651" lon="2.64254">
        <ele>132</ele>
        <time>2015-09-26T09:41:33Z</time>
      </trkpt>
      <trkpt lat="48.40653" lon="2.64225">
        <ele>132</ele>
        <time>2015-09-26T09:41:47Z</time>
      </trkpt>
      <trkpt lat="48.40655" lon="2.64197">
        <ele>132</ele>
        <time>2015-09-26T09:42:02Z</time>
      </trkpt>
      <trkpt lat="48.40648" lon="2.6417">
        <ele>133</ele>
        <time>2015-09-26T09:42:19Z</time>
      </trkpt>
      <trkpt lat="48.40642" lon="2.64159">
        <ele>133</ele>
        <time>2015-09-26T09:42:25Z</time>
      </trkpt>
      <trkpt lat="48.40636" lon="2.64133">
        <ele>133</ele>
        <time>2015-09-26T09:42:40Z</time>
      </trkpt>
      <trkpt lat="48.40637" lon="2.64118">
        <ele>132</ele>
        <time>2015-09-26T09:42:47Z</time>
      </trkpt>
      <trkpt lat="48.40624" lon="2.64033">
        <ele>130</ele>
        <time>2015-09-26T09:43:22Z</time>
      </trkpt>
      <trkpt lat="48.40605" lon="2.63965">
        <ele>131</ele>
        <time>2015-09-26T09:43:55Z</time>
      </trkpt>
      <trkpt lat="48.40593" lon="2.63911">
        <ele>131</ele>
        <time>2015-09-26T09:44:24Z</time>
      </trkpt>
      <trkpt lat="48.40586" lon="2.63902">
        <ele>131</ele>
        <time>2015-09-26T09:44:31Z</time>
      </trkpt>
      <trkpt lat="48.40543" lon="2.63876">
        <ele>130</ele>
        <time>2015-09-26T09:45:04Z</time>
      </trkpt>
      <trkpt lat="48.40507" lon="2.63855">
        <ele>131</ele>
        <time>2015-09-26T09:45:35Z</time>
      </trkpt>
      <trkpt lat="48.40478" lon="2.63848">
        <ele>131</ele>
        <time>2015-09-26T09:45:55Z</time>
      </trkpt>
      <trkpt lat="48.40439" lon="2.63843">
        <ele>133</ele>
        <time>2015-09-26T09:46:27Z</time>
      </trkpt>
    </trkseg>
  </trk>
</gpx>